createdAt,value
2022-11-22T00:00:47.612Z,21.65
2022-11-22T00:03:15.330Z,30.60
2022-11-22T00:05:43.099Z,23.55
2022-11-22T00:08:10.913Z,26.60
2022-11-22T00:10:38.653Z,34.30
2022-11-22T00:13:06.365Z,26.08
2022-11-22T00:15:34.046Z,25.13
2022-11-22T00:18:01.843Z,19.83
2022-11-22T00:20:29.629Z,33.37
2022-11-22T00:22:58.304Z,23.58
2022-11-22T00:25:26.521Z,26.83
2022-11-22T00:27:54.693Z,24.60
2022-11-22T00:30:22.331Z,28.95
2022-11-22T00:32:50.019Z,24.53
2022-11-22T00:35:17.693Z,26.50
2022-11-22T00:37:45.334Z,23.27
2022-11-22T00:40:13.114Z,25.17
2022-11-22T00:42:40.747Z,28.75
2022-11-22T00:45:09.123Z,22.10
2022-11-22T00:47:36.924Z,23.48
2022-11-22T00:50:05.932Z,27.10
2022-11-22T00:52:33.655Z,26.33
2022-11-22T00:55:01.350Z,27.20
2022-11-22T00:57:29.011Z,28.23
2022-11-22T00:59:56.698Z,24.77
2022-11-22T01:02:24.406Z,22.60
2022-11-22T01:04:52.111Z,26.85
2022-11-22T01:07:19.767Z,25.40
2022-11-22T01:09:47.405Z,26.13
2022-11-22T01:12:15.050Z,29.70
2022-11-22T01:14:42.832Z,24.73
2022-11-22T01:17:10.551Z,27.75
2022-11-22T01:19:38.215Z,26.27
2022-11-22T01:22:05.914Z,27.70
2022-11-22T01:24:33.563Z,28.88
2022-11-22T01:27:01.219Z,25.08
2022-11-22T01:29:29.049Z,20.48
2022-11-22T01:31:56.904Z,26.45
2022-11-22T01:34:24.655Z,22.27
2022-11-22T01:36:52.389Z,26.25
2022-11-22T01:39:20.107Z,22.45
2022-11-22T01:41:47.827Z,28.30
2022-11-22T01:44:28.100Z,25.50
2022-11-22T01:47:09.001Z,23.23
2022-11-22T01:49:54.216Z,22.20
2022-11-22T01:52:26.741Z,22.23
2022-11-22T01:55:09.627Z,27.13
2022-11-22T01:57:40.686Z,27.17
2022-11-22T02:00:14.519Z,29.37
2022-11-22T02:02:57.747Z,20.17
2022-11-22T02:05:30.308Z,23.98
2022-11-22T02:08:24.217Z,26.10
2022-11-22T02:10:55.731Z,29.58
2022-11-22T02:13:24.322Z,31.83
2022-11-22T02:15:53.027Z,28.50
2022-11-22T02:18:22.057Z,34.78
2022-11-22T02:20:49.842Z,24.90
2022-11-22T02:23:36.929Z,31.20
2022-11-22T02:26:04.705Z,23.83
2022-11-22T02:28:37.779Z,33.13
2022-11-22T02:31:07.735Z,27.35
2022-11-22T02:33:35.630Z,29.60
2022-11-22T02:36:03.914Z,24.67
2022-11-22T02:38:34.945Z,26.90
2022-11-22T02:41:12.217Z,28.67
2022-11-22T02:43:44.829Z,24.50
2022-11-22T02:46:23.430Z,25.27
2022-11-22T02:48:51.282Z,23.77
2022-11-22T02:51:20.327Z,21.07
2022-11-22T02:57:07.299Z,25.52
2022-11-22T02:59:34.993Z,29.67
2022-11-22T03:02:03.609Z,24.60
2022-11-22T03:04:31.458Z,22.20
2022-11-22T03:07:00.824Z,25.50
2022-11-22T03:09:29.114Z,31.50
2022-11-22T03:11:57.111Z,22.55
2022-11-22T03:14:24.840Z,22.88
2022-11-22T03:16:52.671Z,23.73
2022-11-22T03:19:20.386Z,21.65
2022-11-22T03:21:48.206Z,24.98
2022-11-22T03:24:16.150Z,22.90
2022-11-22T03:26:49.064Z,26.67
2022-11-22T03:29:18.482Z,24.73
2022-11-22T03:31:46.223Z,22.80
2022-11-22T03:34:14.754Z,18.00
2022-11-22T03:36:42.590Z,21.00
2022-11-22T03:39:10.408Z,21.38
2022-11-22T03:41:38.136Z,18.83
2022-11-22T03:44:06.017Z,24.08
2022-11-22T03:46:33.706Z,18.77
2022-11-22T03:49:01.407Z,22.88
2022-11-22T03:51:29.056Z,18.67
2022-11-22T03:53:58.516Z,27.50
2022-11-22T03:56:26.271Z,26.17
2022-11-22T03:58:54.027Z,19.42
2022-11-22T04:01:21.745Z,23.98
2022-11-22T04:03:49.483Z,21.80
2022-11-22T04:06:17.124Z,20.03
2022-11-22T04:08:44.816Z,18.58
2022-11-22T04:11:12.536Z,24.60
2022-11-22T04:13:58.714Z,20.23
2022-11-22T04:16:26.405Z,16.65
2022-11-22T04:18:54.103Z,22.53
2022-11-22T04:21:33.739Z,27.75
2022-11-22T04:24:28.957Z,19.75
2022-11-22T04:26:57.989Z,21.75
2022-11-22T04:29:25.873Z,20.73
2022-11-22T04:32:12.546Z,21.13
2022-11-22T04:34:40.250Z,17.00
2022-11-22T04:37:08.092Z,17.55
2022-11-22T04:39:35.745Z,18.77
2022-11-22T04:42:23.698Z,28.05
2022-11-22T04:44:51.432Z,21.13
2022-11-22T04:47:38.647Z,18.45
2022-11-22T04:50:29.038Z,22.85
2022-11-22T04:52:58.031Z,19.65
2022-11-22T04:55:25.865Z,18.35
2022-11-22T04:57:59.164Z,25.03
2022-11-22T05:00:30.091Z,24.88
2022-11-22T05:02:59.183Z,18.27
2022-11-22T05:05:27.915Z,25.35
2022-11-22T05:07:57.866Z,20.42
2022-11-22T05:10:27.113Z,18.73
2022-11-22T05:12:56.309Z,20.55
2022-11-22T05:15:23.983Z,18.13
2022-11-22T05:17:51.701Z,23.48
2022-11-22T05:20:19.477Z,16.88
2022-11-22T05:23:05.698Z,15.20
2022-11-22T05:25:33.423Z,18.98
2022-11-22T05:28:01.120Z,13.73
2022-11-22T05:30:28.770Z,25.02
2022-11-22T05:32:56.458Z,23.65
2022-11-22T05:35:24.173Z,20.10
2022-11-22T05:37:51.994Z,14.13
2022-11-22T05:40:19.647Z,20.15
2022-11-22T05:42:47.284Z,20.45
2022-11-22T05:45:14.979Z,21.13
2022-11-22T05:47:42.731Z,20.60
2022-11-22T05:50:10.613Z,19.73
2022-11-22T05:52:38.481Z,15.35
2022-11-22T05:55:07.067Z,19.70
2022-11-22T05:57:34.915Z,17.77
2022-11-22T06:00:03.801Z,14.80
2022-11-22T06:02:39.647Z,22.10
2022-11-22T06:05:07.842Z,17.30
2022-11-22T06:07:35.546Z,19.13
2022-11-22T06:10:03.365Z,19.10
2022-11-22T06:12:31.099Z,19.53
2022-11-22T06:14:58.789Z,19.13
2022-11-22T06:17:46.176Z,27.98
2022-11-22T06:20:14.275Z,11.55
2022-11-22T06:22:41.989Z,14.95
2022-11-22T06:25:10.487Z,21.00
2022-11-22T06:27:38.182Z,19.00
2022-11-22T06:30:07.537Z,16.27
2022-11-22T06:32:35.498Z,18.77
2022-11-22T06:35:04.398Z,14.40
2022-11-22T06:37:32.410Z,22.20
2022-11-22T06:40:00.127Z,17.45
2022-11-22T06:42:27.862Z,17.38
2022-11-22T06:44:55.506Z,13.88
2022-11-22T06:47:23.194Z,17.92
2022-11-22T06:49:50.898Z,14.60
2022-11-22T06:52:18.754Z,17.90
2022-11-22T06:54:46.459Z,23.08
2022-11-22T06:57:14.946Z,21.95
2022-11-22T06:59:42.642Z,16.73
2022-11-22T07:02:12.552Z,17.97
2022-11-22T07:04:51.112Z,17.92
2022-11-22T07:07:27.928Z,15.10
2022-11-22T07:09:56.678Z,16.90
2022-11-22T07:12:24.445Z,16.83
2022-11-22T07:14:52.187Z,15.63
2022-11-22T07:17:19.842Z,19.15
2022-11-22T07:19:47.539Z,28.20
2022-11-22T07:22:15.207Z,15.93
2022-11-22T07:24:42.837Z,10.88
2022-11-22T07:27:10.479Z,20.60
2022-11-22T07:29:38.174Z,15.23
2022-11-22T07:32:06.175Z,10.23
2022-11-22T07:34:33.847Z,16.02
2022-11-22T07:37:06.139Z,17.67
2022-11-22T07:39:36.457Z,19.23
2022-11-22T07:42:04.195Z,15.38
2022-11-22T07:44:31.896Z,20.38
2022-11-22T07:46:59.597Z,18.42
2022-11-22T07:49:27.816Z,16.52
2022-11-22T07:51:55.703Z,13.63
2022-11-22T07:54:23.396Z,14.38
2022-11-22T07:56:51.131Z,17.13
2022-11-22T07:59:18.832Z,10.25
2022-11-22T08:01:46.676Z,19.60
2022-11-22T08:04:14.691Z,15.10
2022-11-22T08:06:42.396Z,10.52
2022-11-22T08:09:11.124Z,14.18
2022-11-22T08:11:39.138Z,12.23
2022-11-22T08:14:06.842Z,15.70
2022-11-22T08:16:34.539Z,14.10
2022-11-22T08:19:02.251Z,16.13
2022-11-22T08:21:29.951Z,15.15
2022-11-22T08:23:59.184Z,14.77
2022-11-22T08:26:27.167Z,17.50
2022-11-22T08:28:54.898Z,14.07
2022-11-22T08:31:22.609Z,14.88
2022-11-22T08:33:53.991Z,20.13
2022-11-22T08:36:21.887Z,17.88
2022-11-22T08:38:49.638Z,14.20
2022-11-22T08:41:17.325Z,8.87
2022-11-22T08:43:45.060Z,21.27
2022-11-22T08:46:12.759Z,17.98
2022-11-22T08:48:40.439Z,14.05
2022-11-22T08:51:11.789Z,11.40
2022-11-22T08:53:44.030Z,14.97
2022-11-22T08:56:14.934Z,20.42
2022-11-22T08:58:42.962Z,12.60
2022-11-22T09:01:14.334Z,13.27
2022-11-22T09:03:43.765Z,20.10
2022-11-22T09:09:29.996Z,18.90
2022-11-22T09:11:50.307Z,12.27
2022-11-22T09:14:17.983Z,24.90
2022-11-22T09:16:45.691Z,20.02
2022-11-22T09:19:13.481Z,14.27
2022-11-22T09:21:41.196Z,15.02
2022-11-22T09:24:08.893Z,15.45
2022-11-22T09:26:36.574Z,17.20
2022-11-22T09:29:05.030Z,12.95
2022-11-22T09:31:32.857Z,17.27
2022-11-22T09:34:00.554Z,10.40
2022-11-22T09:36:28.213Z,13.93
2022-11-22T09:38:56.896Z,14.25
2022-11-22T09:42:01.769Z,13.05
2022-11-22T09:45:33.454Z,14.67
2022-11-22T09:48:39.362Z,10.18
2022-11-22T09:51:17.459Z,12.80
2022-11-22T09:53:52.830Z,11.75
2022-11-22T09:56:25.811Z,12.77
2022-11-22T09:59:07.314Z,11.80
2022-11-22T10:01:53.052Z,11.38
2022-11-22T10:04:35.299Z,9.40
2022-11-22T10:07:21.336Z,12.77
2022-11-22T10:10:24.873Z,13.98
2022-11-22T10:13:15.885Z,11.50
2022-11-22T10:16:20.881Z,12.95
2022-11-22T10:19:10.701Z,14.52
2022-11-22T10:21:38.431Z,10.90
2022-11-22T10:24:09.987Z,15.35
2022-11-22T10:26:39.592Z,10.60
2022-11-22T10:29:36.438Z,13.88
2022-11-22T10:32:23.314Z,11.32
2022-11-22T10:35:17.280Z,16.50
2022-11-22T10:38:06.782Z,15.38
2022-11-22T10:41:01.246Z,11.50
2022-11-22T10:43:42.001Z,14.50
2022-11-22T10:46:30.508Z,9.85
2022-11-22T10:49:28.997Z,14.77
2022-11-22T10:52:44.435Z,11.88
2022-11-22T10:55:39.546Z,10.43
2022-11-22T10:58:24.709Z,10.90
2022-11-22T11:01:20.757Z,13.63
2022-11-22T11:03:53.131Z,10.85
2022-11-22T11:06:56.930Z,13.15
2022-11-22T11:12:40.446Z,9.80
2022-11-22T11:15:44.442Z,9.30
2022-11-22T11:18:22.337Z,10.20
2022-11-22T11:20:51.409Z,10.98
2022-11-22T11:23:19.066Z,9.07
2022-11-22T11:25:48.982Z,10.90
2022-11-22T11:28:27.355Z,15.48
2022-11-22T11:30:59.116Z,14.30
2022-11-22T11:33:32.528Z,11.25
2022-11-22T11:36:17.008Z,9.93
2022-11-22T11:38:44.626Z,8.82
2022-11-22T11:41:30.317Z,8.43
2022-11-22T11:44:01.310Z,8.32
2022-11-22T11:46:45.179Z,8.50
2022-11-22T11:49:18.736Z,10.47
2022-11-22T11:52:11.778Z,13.55
2022-11-22T11:54:43.334Z,6.90
2022-11-22T11:57:28.873Z,8.40
2022-11-22T12:00:01.589Z,10.57
2022-11-22T12:02:43.292Z,7.10
2022-11-22T12:05:13.828Z,8.02
2022-11-22T12:07:47.729Z,10.50
2022-11-22T12:10:36.778Z,11.20
2022-11-22T12:13:30.142Z,11.05
2022-11-22T12:16:25.626Z,10.23
2022-11-22T12:19:10.718Z,9.20
2022-11-22T12:22:24.280Z,10.15
2022-11-22T12:25:35.701Z,7.55
2022-11-22T12:28:19.679Z,9.73
2022-11-22T12:30:55.828Z,8.53
2022-11-22T12:33:32.076Z,6.68
2022-11-22T12:36:00.716Z,9.73
2022-11-22T12:38:34.480Z,5.47
2022-11-22T12:41:07.989Z,7.00
2022-11-22T12:43:41.112Z,4.93
2022-11-22T12:46:40.693Z,9.93
2022-11-22T12:49:24.387Z,7.90
2022-11-22T12:52:03.469Z,8.57
2022-11-22T12:55:03.567Z,5.57
2022-11-22T12:57:53.451Z,5.70
2022-11-22T13:00:24.825Z,6.35
2022-11-22T13:03:12.403Z,6.43
2022-11-22T13:05:56.290Z,6.63
2022-11-22T13:08:42.283Z,5.47
2022-11-22T13:11:16.847Z,4.67
2022-11-22T13:13:49.860Z,5.03
2022-11-22T13:16:17.714Z,5.47
2022-11-22T13:18:57.407Z,5.45
2022-11-22T13:21:54.303Z,4.25
2022-11-22T13:24:57.925Z,6.50
2022-11-22T13:27:44.570Z,4.72
2022-11-22T13:30:24.932Z,6.70
2022-11-22T13:32:59.362Z,5.97
2022-11-22T13:35:36.707Z,6.32
2022-11-22T13:38:16.136Z,5.50
2022-11-22T13:40:50.421Z,5.80
2022-11-22T13:43:22.304Z,4.07
2022-11-22T13:45:53.374Z,5.22
2022-11-22T13:48:39.417Z,6.20
2022-11-22T13:51:12.705Z,3.57
2022-11-22T13:53:46.138Z,7.53
2022-11-22T13:56:16.719Z,4.53
2022-11-22T13:59:03.345Z,5.30
2022-11-22T14:01:37.023Z,6.25
2022-11-22T14:04:16.784Z,5.83
2022-11-22T14:07:03.443Z,4.30
2022-11-22T14:09:40.865Z,4.70
2022-11-22T14:12:39.710Z,3.53
2022-11-22T14:15:52.752Z,3.72
2022-11-22T14:19:03.267Z,4.43
2022-11-22T14:22:14.582Z,4.10
2022-11-22T14:25:02.074Z,4.65
2022-11-22T14:27:51.850Z,4.10
2022-11-22T14:30:43.888Z,5.25
2022-11-22T14:33:24.879Z,5.70
2022-11-22T14:36:07.683Z,5.40
2022-11-22T14:38:38.555Z,4.38
2022-11-22T14:41:27.858Z,3.30
2022-11-22T14:44:12.162Z,5.40
2022-11-22T14:47:04.687Z,3.80
2022-11-22T14:49:43.210Z,5.07
2022-11-22T14:52:29.847Z,7.75
2022-11-22T14:55:00.485Z,5.65
2022-11-22T14:57:33.291Z,6.53
2022-11-22T15:00:21.044Z,4.70
2022-11-22T15:03:30.345Z,4.38
2022-11-22T15:09:10.289Z,6.55
2022-11-22T15:10:08.095Z,3.90
2022-11-22T15:12:44.633Z,3.10
2022-11-22T15:57:30.103Z,4.10
2022-11-22T15:59:58.912Z,5.00
2022-11-22T16:02:33.099Z,3.80
2022-11-22T16:06:04.430Z,5.35
2022-11-22T16:07:56.806Z,4.72
2022-11-22T16:10:42.369Z,4.40
2022-11-22T16:13:19.184Z,5.20
2022-11-22T16:16:14.120Z,6.32
2022-11-22T16:18:44.165Z,7.55
2022-11-22T16:21:11.809Z,10.23
2022-11-22T16:23:41.865Z,6.80
2022-11-22T16:26:19.069Z,8.43
2022-11-22T16:28:51.640Z,5.35
2022-11-22T16:31:31.241Z,9.35
2022-11-22T16:33:59.660Z,5.30
2022-11-22T16:36:30.211Z,6.97
2022-11-22T16:38:58.312Z,6.00
2022-11-22T16:41:28.792Z,5.18
2022-11-22T16:44:10.986Z,6.55
2022-11-22T16:46:40.504Z,6.60
2022-11-22T16:49:34.525Z,7.78
2022-11-22T16:52:02.226Z,5.83
2022-11-22T16:54:33.142Z,6.50
2022-11-22T16:57:00.862Z,7.82
2022-11-22T16:59:28.808Z,8.48
2022-11-22T17:01:56.626Z,7.50
2022-11-22T17:04:26.896Z,7.40
2022-11-22T17:06:54.690Z,11.27
2022-11-22T17:09:22.576Z,11.18
2022-11-22T17:11:50.643Z,10.55
2022-11-22T17:15:07.021Z,13.00
2022-11-22T17:17:34.708Z,12.40
2022-11-22T17:20:02.621Z,9.05
2022-11-22T17:22:30.371Z,7.85
2022-11-22T17:24:58.549Z,13.15
2022-11-22T17:27:26.235Z,10.77
2022-11-22T17:29:53.973Z,12.50
2022-11-22T17:32:21.681Z,12.48
2022-11-22T17:34:49.396Z,11.10
2022-11-22T17:37:17.055Z,11.73
2022-11-22T17:39:44.985Z,11.77
2022-11-22T17:42:12.857Z,11.80
2022-11-22T17:44:40.495Z,10.82
2022-11-22T17:47:08.808Z,10.50
2022-11-22T17:49:36.448Z,12.52
2022-11-22T17:52:04.139Z,14.40
2022-11-22T17:54:31.790Z,12.03
2022-11-22T17:56:59.447Z,12.75
2022-11-22T17:59:27.137Z,12.55
2022-11-22T18:01:54.829Z,11.93
2022-11-22T18:04:22.513Z,14.70
2022-11-22T18:06:50.285Z,13.90
2022-11-22T18:09:17.989Z,12.98
2022-11-22T18:11:46.545Z,14.02
2022-11-22T18:14:14.499Z,14.82
2022-11-22T18:16:42.149Z,13.90
2022-11-22T18:19:09.988Z,12.83
2022-11-22T18:21:38.942Z,12.73
2022-11-22T18:24:08.402Z,15.00
2022-11-22T18:26:40.828Z,13.60
2022-11-22T18:31:59.634Z,16.33
2022-11-22T18:34:27.974Z,11.63
2022-11-22T18:37:01.552Z,13.82
2022-11-22T18:39:41.153Z,15.48
2022-11-22T18:42:14.678Z,12.02
2022-11-22T18:44:42.404Z,13.27
2022-11-22T18:47:10.096Z,12.20
2022-11-22T18:49:38.004Z,13.55
2022-11-22T18:52:06.012Z,13.40
2022-11-22T18:54:34.230Z,16.75
2022-11-22T18:57:02.056Z,15.50
2022-11-22T18:59:29.931Z,18.17
2022-11-22T19:01:57.686Z,12.77
2022-11-22T19:04:25.390Z,12.10
2022-11-22T19:06:53.174Z,12.98
2022-11-22T19:09:20.825Z,13.87
2022-11-22T19:11:48.560Z,12.55
2022-11-22T19:14:16.255Z,10.80
2022-11-22T19:16:45.092Z,12.13
2022-11-22T19:19:12.838Z,11.10
2022-11-22T19:21:40.477Z,14.00
2022-11-22T19:24:08.266Z,13.98
2022-11-22T19:26:36.005Z,13.27
2022-11-22T19:29:04.729Z,9.45
2022-11-22T19:31:32.618Z,14.35
2022-11-22T19:34:00.602Z,12.77
2022-11-22T19:36:36.439Z,10.73
2022-11-22T19:39:06.899Z,11.43
2022-11-22T19:41:34.891Z,12.63
2022-11-22T19:44:03.678Z,12.43
2022-11-22T19:46:31.318Z,16.17
2022-11-22T19:49:01.245Z,15.75
2022-11-22T19:51:31.239Z,14.85
2022-11-22T19:54:04.617Z,17.50
2022-11-22T19:56:35.743Z,17.15
2022-11-22T19:59:06.901Z,16.40
2022-11-22T20:01:35.481Z,16.58
2022-11-22T20:04:06.384Z,16.15
2022-11-22T20:06:35.892Z,23.40
2022-11-22T20:09:11.540Z,15.80
2022-11-22T20:11:41.208Z,34.37
2022-11-22T20:14:09.813Z,25.95
2022-11-22T20:16:41.578Z,18.23
2022-11-22T20:19:12.224Z,25.98
2022-11-22T20:21:40.250Z,18.67
2022-11-22T20:24:08.526Z,22.50
2022-11-22T20:26:36.542Z,20.00
2022-11-22T20:29:08.507Z,27.88
2022-11-22T20:31:38.475Z,24.17
2022-11-22T20:34:06.969Z,20.50
2022-11-22T20:36:35.661Z,24.73
2022-11-22T20:39:09.693Z,23.95
2022-11-22T20:41:39.875Z,19.45
2022-11-22T20:44:13.273Z,18.05
2022-11-22T20:46:41.491Z,22.25
2022-11-22T20:49:09.156Z,24.27
2022-11-22T20:51:39.523Z,22.15
2022-11-22T20:54:08.325Z,22.75
2022-11-22T20:56:37.456Z,19.13
2022-11-22T20:59:05.766Z,19.55
2022-11-22T21:01:33.537Z,21.43
2022-11-22T21:04:01.225Z,22.02
2022-11-22T21:06:29.123Z,30.70
2022-11-22T21:08:56.885Z,27.00
2022-11-22T21:11:26.707Z,17.88
2022-11-22T21:13:56.087Z,18.67
2022-11-22T21:16:27.605Z,27.67
2022-11-22T21:18:58.490Z,18.92
2022-11-22T21:21:26.591Z,21.90
2022-11-22T21:23:57.146Z,21.00
2022-11-22T21:26:26.454Z,22.43
2022-11-22T21:28:54.855Z,26.33
2022-11-22T21:31:23.864Z,24.50
2022-11-22T21:33:52.211Z,28.27
2022-11-22T21:36:20.787Z,21.30
2022-11-22T21:38:48.669Z,23.17
2022-11-22T21:44:08.016Z,21.08
2022-11-22T21:46:35.655Z,25.45
2022-11-22T21:49:04.991Z,20.10
2022-11-22T21:51:32.708Z,30.43
2022-11-22T21:54:01.783Z,25.88
2022-11-22T21:56:30.273Z,18.02
2022-11-22T21:58:57.998Z,20.00
2022-11-22T22:01:26.095Z,20.27
2022-11-22T22:03:53.979Z,21.13
2022-11-22T22:06:21.884Z,23.63
2022-11-22T22:08:49.729Z,17.70
2022-11-22T22:11:17.708Z,25.60
2022-11-22T22:13:45.417Z,18.48
2022-11-22T22:16:18.659Z,17.17
2022-11-22T22:18:47.116Z,23.15
2022-11-22T22:21:16.018Z,25.13
2022-11-22T22:23:44.585Z,22.67
2022-11-22T22:26:16.932Z,21.38
2022-11-22T22:28:45.780Z,23.90
2022-11-22T22:31:22.298Z,25.83
2022-11-22T22:33:59.054Z,24.02
2022-11-22T22:36:27.645Z,20.25
2022-11-22T22:38:55.355Z,19.00
2022-11-22T22:41:23.461Z,18.93
2022-11-22T22:43:51.186Z,23.13
2022-11-22T22:46:27.046Z,23.10
2022-11-22T22:48:55.000Z,22.15
2022-11-22T22:51:32.453Z,20.15
2022-11-22T22:54:01.563Z,19.53
2022-11-22T22:56:31.096Z,22.52
2022-11-22T22:59:00.552Z,21.10
2022-11-22T23:01:31.146Z,24.75
2022-11-22T23:04:01.014Z,21.10
2022-11-22T23:06:35.279Z,27.63
2022-11-22T23:09:06.306Z,25.65
2022-11-22T23:11:54.456Z,26.88
2022-11-22T23:14:26.537Z,24.38
2022-11-22T23:16:57.898Z,19.52
2022-11-22T23:19:27.193Z,19.67
2022-11-22T23:21:55.803Z,23.90
2022-11-22T23:24:23.663Z,20.17
2022-11-22T23:26:51.465Z,22.55
2022-11-22T23:29:20.821Z,21.73
2022-11-22T23:31:48.461Z,23.27
2022-11-22T23:34:16.239Z,26.65
2022-11-22T23:36:44.037Z,28.50
2022-11-22T23:39:11.770Z,23.85
2022-11-22T23:41:39.476Z,27.02
2022-11-22T23:44:07.433Z,31.00
2022-11-22T23:46:35.124Z,23.58
2022-11-22T23:49:05.310Z,27.95
2022-11-22T23:51:34.952Z,30.48
2022-11-22T23:54:06.015Z,31.63
2022-11-22T23:56:35.624Z,25.43
2022-11-22T23:59:05.546Z,35.88
